TimeMST,TemperatureF,Dew PointF,Humidity,Sea Level PressureIn,VisibilityMPH,Wind Direction,Wind SpeedMPH,Gust SpeedMPH,PrecipitationIn,Events,Conditions,WindDirDegrees,DateUTC
12:53 AM,-0.9,-2.9,91,30.61,10.0,SSW,3.5,-,N/A,,Clear,210,2013-01-21 07:53:00
1:53 AM,-5.1,-6.0,96,30.62,10.0,Calm,Calm,-,N/A,,Clear,0,2013-01-21 08:53:00
2:53 AM,-4.0,-8.0,83,30.62,8.0,Calm,Calm,-,N/A,,Clear,0,2013-01-21 09:53:00
3:53 AM,-0.0,-2.0,91,30.59,10.0,Calm,Calm,-,N/A,,Clear,0,2013-01-21 10:53:00
4:13 AM,-2.2,-4.0,92,30.37,3.0,WNW,3.5,-,N/A,,Scattered Clouds,300,2013-01-21 11:13:00
4:34 AM,-2.2,-5.8,85,30.37,9.0,SW,3.5,-,N/A,,Mostly Cloudy,220,2013-01-21 11:34:00
4:43 AM,-4.0,-7.6,85,30.38,10.0,Calm,Calm,-,N/A,,Partly Cloudy,0,2013-01-21 11:43:00
4:53 AM,-2.0,-7.1,79,30.61,10.0,Calm,Calm,-,N/A,,Partly Cloudy,0,2013-01-21 11:53:00
5:33 AM,-0.4,-2.2,92,30.39,1.5,NNW,3.5,-,N/A,,Partly Cloudy,340,2013-01-21 12:33:00
5:37 AM,3.2,-0.4,85,30.39,0.8,Calm,Calm,-,N/A,,Mist,0,2013-01-21 12:37:00
5:50 AM,-9.4,-11.2,92,30.39,2.0,West,6.9,-,N/A,,Mostly Cloudy,260,2013-01-21 12:50:00
5:53 AM,-7.1,-11.9,79,30.66,8.0,West,6.9,-,N/A,,Scattered Clouds,270,2013-01-21 12:53:00
6:53 AM,-4.0,-7.1,87,30.68,7.0,Calm,Calm,-,N/A,,Clear,0,2013-01-21 13:53:00
7:53 AM,-6.0,-9.9,83,30.68,10.0,Calm,Calm,-,N/A,,Clear,0,2013-01-21 14:53:00
8:53 AM,-0.0,-0.9,96,30.69,6.0,Calm,Calm,-,N/A,,Clear,0,2013-01-21 15:53:00
9:53 AM,3.9,3.9,100,30.71,10.0,Calm,Calm,-,N/A,,Clear,0,2013-01-21 16:53:00
10:53 AM,12.0,10.0,92,30.69,10.0,Calm,Calm,-,N/A,,Clear,0,2013-01-21 17:53:00
11:53 AM,14.0,10.0,84,30.68,10.0,NW,6.9,-,N/A,,Clear,320,2013-01-21 18:53:00
12:53 PM,14.0,10.0,84,30.63,10.0,NNW,11.5,-,N/A,,Clear,330,2013-01-21 19:53:00
1:53 PM,16.0,10.9,81,30.62,10.0,NNW,12.7,-,N/A,,Clear,330,2013-01-21 20:53:00
2:53 PM,18.0,12.9,81,30.59,10.0,Calm,Calm,-,N/A,,Clear,0,2013-01-21 21:53:00
3:53 PM,17.1,12.0,81,30.58,10.0,NNW,3.5,-,N/A,,Clear,330,2013-01-21 22:53:00
4:53 PM,16.0,10.9,81,30.58,10.0,WNW,4.6,-,N/A,,Clear,300,2013-01-21 23:53:00
5:53 PM,12.0,7.0,80,30.61,10.0,Calm,Calm,-,N/A,,Clear,0,2013-01-22 00:53:00
6:53 PM,7.0,3.0,84,30.62,10.0,Calm,Calm,-,N/A,,Clear,0,2013-01-22 01:53:00
7:53 PM,5.0,3.0,92,30.63,10.0,Calm,Calm,-,N/A,,Clear,0,2013-01-22 02:53:00
8:53 PM,3.9,1.0,88,30.63,10.0,North,3.5,-,N/A,,Clear,360,2013-01-22 03:53:00
9:53 PM,3.9,-0.0,84,30.62,10.0,Calm,Calm,-,N/A,,Clear,0,2013-01-22 04:53:00
10:53 PM,5.0,1.0,84,30.59,10.0,Calm,Calm,-,N/A,,Clear,0,2013-01-22 05:53:00
11:53 PM,-0.9,-5.1,83,30.61,10.0,Calm,Calm,-,N/A,,Clear,0,2013-01-22 06:53:00